sensor_id;sensor_type;location;lat;lon;timestamp;temperature;humidity
22635;DHT22;11484;50.858;4.384;2023-03-01T00:02:02;3.00;96.40
22635;DHT22;11484;50.858;4.384;2023-03-01T00:04:30;3.00;96.40
22635;DHT22;11484;50.858;4.384;2023-03-01T00:06:56;3.20;96.40
22635;DHT22;11484;50.858;4.384;2023-03-01T00:09:21;3.10;96.50
22635;DHT22;11484;50.858;4.384;2023-03-01T00:11:48;3.10;96.40
22635;DHT22;11484;50.858;4.384;2023-03-01T00:14:14;2.90;96.60
22635;DHT22;11484;50.858;4.384;2023-03-01T00:16:43;2.90;96.90
22635;DHT22;11484;50.858;4.384;2023-03-01T00:19:17;2.90;97.10
22635;DHT22;11484;50.858;4.384;2023-03-01T00:21:43;2.90;97.10
22635;DHT22;11484;50.858;4.384;2023-03-01T00:24:10;2.90;97.20
22635;DHT22;11484;50.858;4.384;2023-03-01T00:26:36;2.90;97.20
22635;DHT22;11484;50.858;4.384;2023-03-01T00:29:05;2.90;97.30
22635;DHT22;11484;50.858;4.384;2023-03-01T00:31:32;2.90;97.30
22635;DHT22;11484;50.858;4.384;2023-03-01T00:34:04;2.80;97.50
22635;DHT22;11484;50.858;4.384;2023-03-01T00:36:35;2.70;97.70
22635;DHT22;11484;50.858;4.384;2023-03-01T00:39:02;2.70;97.90
22635;DHT22;11484;50.858;4.384;2023-03-01T00:41:28;2.60;98.10
22635;DHT22;11484;50.858;4.384;2023-03-01T00:43:54;2.70;98.30
22635;DHT22;11484;50.858;4.384;2023-03-01T00:46:23;2.80;98.40
22635;DHT22;11484;50.858;4.384;2023-03-01T00:48:49;2.80;98.30
22635;DHT22;11484;50.858;4.384;2023-03-01T00:51:17;2.90;98.20
22635;DHT22;11484;50.858;4.384;2023-03-01T00:53:44;3.00;98.10
22635;DHT22;11484;50.858;4.384;2023-03-01T00:56:12;3.00;98.00
22635;DHT22;11484;50.858;4.384;2023-03-01T00:58:39;3.00;98.10
22635;DHT22;11484;50.858;4.384;2023-03-01T01:01:19;3.00;97.90
22635;DHT22;11484;50.858;4.384;2023-03-01T01:04:00;2.90;97.90
22635;DHT22;11484;50.858;4.384;2023-03-01T01:06:28;2.80;98.20
22635;DHT22;11484;50.858;4.384;2023-03-01T01:09:02;2.70;98.60
22635;DHT22;11484;50.858;4.384;2023-03-01T01:11:29;2.50;98.90
22635;DHT22;11484;50.858;4.384;2023-03-01T01:13:55;2.50;99.20
22635;DHT22;11484;50.858;4.384;2023-03-01T01:16:23;2.50;99.40
22635;DHT22;11484;50.858;4.384;2023-03-01T01:18:50;2.40;99.50
22635;DHT22;11484;50.858;4.384;2023-03-01T01:21:19;2.40;99.80
22635;DHT22;11484;50.858;4.384;2023-03-01T01:23:46;2.40;99.90
22635;DHT22;11484;50.858;4.384;2023-03-01T01:26:18;2.40;99.90
22635;DHT22;11484;50.858;4.384;2023-03-01T01:28:44;2.30;99.90
22635;DHT22;11484;50.858;4.384;2023-03-01T01:31:10;2.40;99.90
22635;DHT22;11484;50.858;4.384;2023-03-01T01:33:36;2.40;99.90
22635;DHT22;11484;50.858;4.384;2023-03-01T01:36:04;2.50;99.90
22635;DHT22;11484;50.858;4.384;2023-03-01T01:38:30;2.50;99.90
22635;DHT22;11484;50.858;4.384;2023-03-01T01:40:55;2.60;99.90
22635;DHT22;11484;50.858;4.384;2023-03-01T01:45:47;2.50;99.90
22635;DHT22;11484;50.858;4.384;2023-03-01T01:48:16;2.40;99.90
22635;DHT22;11484;50.858;4.384;2023-03-01T01:50:44;2.40;99.90
22635;DHT22;11484;50.858;4.384;2023-03-01T01:53:14;2.30;99.90
22635;DHT22;11484;50.858;4.384;2023-03-01T01:55:46;2.40;99.90
22635;DHT22;11484;50.858;4.384;2023-03-01T01:58:14;2.40;99.90
22635;DHT22;11484;50.858;4.384;2023-03-01T02:00:41;2.40;99.90
22635;DHT22;11484;50.858;4.384;2023-03-01T02:03:10;2.30;99.90
22635;DHT22;11484;50.858;4.384;2023-03-01T02:08:09;2.40;99.90
22635;DHT22;11484;50.858;4.384;2023-03-01T02:10:37;2.40;99.90
22635;DHT22;11484;50.858;4.384;2023-03-01T02:13:04;2.50;99.90
22635;DHT22;11484;50.858;4.384;2023-03-01T02:15:37;2.40;99.90
22635;DHT22;11484;50.858;4.384;2023-03-01T02:18:03;2.40;99.90
22635;DHT22;11484;50.858;4.384;2023-03-01T02:23:01;2.20;99.90
22635;DHT22;11484;50.858;4.384;2023-03-01T02:30:42;2.30;99.90
22635;DHT22;11484;50.858;4.384;2023-03-01T02:33:29;2.00;99.90
22635;DHT22;11484;50.858;4.384;2023-03-01T02:36:05;1.90;99.90
22635;DHT22;11484;50.858;4.384;2023-03-01T02:38:32;1.80;99.90
22635;DHT22;11484;50.858;4.384;2023-03-01T02:40:58;1.90;99.90
22635;DHT22;11484;50.858;4.384;2023-03-01T02:43:26;1.90;99.90
22635;DHT22;11484;50.858;4.384;2023-03-01T02:45:58;2.00;99.90
22635;DHT22;11484;50.858;4.384;2023-03-01T02:48:24;2.00;99.90
22635;DHT22;11484;50.858;4.384;2023-03-01T02:53:39;2.00;99.90
22635;DHT22;11484;50.858;4.384;2023-03-01T02:56:08;2.00;99.90
22635;DHT22;11484;50.858;4.384;2023-03-01T02:58:42;2.10;99.90
22635;DHT22;11484;50.858;4.384;2023-03-01T03:01:11;2.10;99.90
22635;DHT22;11484;50.858;4.384;2023-03-01T03:03:36;2.10;99.90
22635;DHT22;11484;50.858;4.384;2023-03-01T03:06:02;2.10;99.90
22635;DHT22;11484;50.858;4.384;2023-03-01T03:08:28;2.00;99.90
22635;DHT22;11484;50.858;4.384;2023-03-01T03:10:53;1.90;99.90
22635;DHT22;11484;50.858;4.384;2023-03-01T03:13:19;1.80;99.90
22635;DHT22;11484;50.858;4.384;2023-03-01T03:15:47;1.80;99.90
22635;DHT22;11484;50.858;4.384;2023-03-01T03:18:15;1.80;99.90
22635;DHT22;11484;50.858;4.384;2023-03-01T03:20:42;1.90;99.90
22635;DHT22;11484;50.858;4.384;2023-03-01T03:23:08;2.00;99.90
22635;DHT22;11484;50.858;4.384;2023-03-01T03:25:33;2.10;99.90
22635;DHT22;11484;50.858;4.384;2023-03-01T03:28:03;2.00;99.90
22635;DHT22;11484;50.858;4.384;2023-03-01T03:30:37;1.90;99.90
22635;DHT22;11484;50.858;4.384;2023-03-01T03:33:05;1.90;99.90
22635;DHT22;11484;50.858;4.384;2023-03-01T03:35:39;2.00;99.90
22635;DHT22;11484;50.858;4.384;2023-03-01T03:38:08;1.90;99.90
22635;DHT22;11484;50.858;4.384;2023-03-01T03:40:42;1.80;99.90
22635;DHT22;11484;50.858;4.384;2023-03-01T03:43:10;1.90;99.90
22635;DHT22;11484;50.858;4.384;2023-03-01T03:45:37;1.80;99.90
22635;DHT22;11484;50.858;4.384;2023-03-01T03:48:05;1.70;99.90
22635;DHT22;11484;50.858;4.384;2023-03-01T03:50:32;1.60;99.90
22635;DHT22;11484;50.858;4.384;2023-03-01T03:53:00;1.70;99.90
22635;DHT22;11484;50.858;4.384;2023-03-01T03:55:25;1.60;99.90
22635;DHT22;11484;50.858;4.384;2023-03-01T03:57:57;1.50;99.90
22635;DHT22;11484;50.858;4.384;2023-03-01T04:00:26;1.40;99.90
22635;DHT22;11484;50.858;4.384;2023-03-01T04:02:52;1.40;99.90
22635;DHT22;11484;50.858;4.384;2023-03-01T04:05:21;1.40;99.90
22635;DHT22;11484;50.858;4.384;2023-03-01T04:07:47;1.30;99.90
22635;DHT22;11484;50.858;4.384;2023-03-01T04:10:16;1.20;99.90
22635;DHT22;11484;50.858;4.384;2023-03-01T04:12:42;1.20;99.90
22635;DHT22;11484;50.858;4.384;2023-03-01T04:15:09;1.10;99.90
22635;DHT22;11484;50.858;4.384;2023-03-01T04:17:43;1.10;99.90
22635;DHT22;11484;50.858;4.384;2023-03-01T04:20:11;1.20;99.90
22635;DHT22;11484;50.858;4.384;2023-03-01T04:22:38;1.20;99.90
22635;DHT22;11484;50.858;4.384;2023-03-01T04:25:04;1.20;99.90
22635;DHT22;11484;50.858;4.384;2023-03-01T04:27:33;1.10;99.90
22635;DHT22;11484;50.858;4.384;2023-03-01T04:29:59;1.10;99.90
22635;DHT22;11484;50.858;4.384;2023-03-01T04:32:24;1.10;99.90
22635;DHT22;11484;50.858;4.384;2023-03-01T04:34:50;1.20;99.90
22635;DHT22;11484;50.858;4.384;2023-03-01T04:37:15;1.10;99.90
22635;DHT22;11484;50.858;4.384;2023-03-01T04:39:41;1.00;99.90
22635;DHT22;11484;50.858;4.384;2023-03-01T04:42:14;0.90;99.90
22635;DHT22;11484;50.858;4.384;2023-03-01T04:44:40;1.00;99.90
22635;DHT22;11484;50.858;4.384;2023-03-01T04:47:06;1.00;99.90
22635;DHT22;11484;50.858;4.384;2023-03-01T04:49:32;1.00;99.90
22635;DHT22;11484;50.858;4.384;2023-03-01T04:51:58;0.90;99.90
22635;DHT22;11484;50.858;4.384;2023-03-01T04:54:27;0.80;99.90
22635;DHT22;11484;50.858;4.384;2023-03-01T04:56:53;0.80;99.90
22635;DHT22;11484;50.858;4.384;2023-03-01T04:59:19;0.80;99.90
22635;DHT22;11484;50.858;4.384;2023-03-01T05:01:48;0.70;99.90
22635;DHT22;11484;50.858;4.384;2023-03-01T05:04:14;0.60;99.90
22635;DHT22;11484;50.858;4.384;2023-03-01T05:06:40;0.60;99.90
22635;DHT22;11484;50.858;4.384;2023-03-01T05:09:06;0.70;99.90
22635;DHT22;11484;50.858;4.384;2023-03-01T05:11:32;0.80;99.90
22635;DHT22;11484;50.858;4.384;2023-03-01T05:14:08;0.80;99.90
22635;DHT22;11484;50.858;4.384;2023-03-01T05:16:35;0.80;99.90
22635;DHT22;11484;50.858;4.384;2023-03-01T05:19:02;0.80;99.90
22635;DHT22;11484;50.858;4.384;2023-03-01T05:21:38;0.80;99.90
22635;DHT22;11484;50.858;4.384;2023-03-01T05:24:27;0.80;99.90
22635;DHT22;11484;50.858;4.384;2023-03-01T05:26:53;0.80;99.90
22635;DHT22;11484;50.858;4.384;2023-03-01T05:29:20;0.90;99.90
22635;DHT22;11484;50.858;4.384;2023-03-01T05:31:58;0.80;99.90
22635;DHT22;11484;50.858;4.384;2023-03-01T05:34:25;0.90;99.90
22635;DHT22;11484;50.858;4.384;2023-03-01T05:36:52;0.80;99.90
22635;DHT22;11484;50.858;4.384;2023-03-01T05:39:22;0.80;99.90
22635;DHT22;11484;50.858;4.384;2023-03-01T05:41:52;0.80;99.90
22635;DHT22;11484;50.858;4.384;2023-03-01T05:44:18;0.80;99.90
22635;DHT22;11484;50.858;4.384;2023-03-01T05:46:43;0.80;99.90
22635;DHT22;11484;50.858;4.384;2023-03-01T05:49:10;0.80;99.90
22635;DHT22;11484;50.858;4.384;2023-03-01T05:51:36;0.80;99.90
22635;DHT22;11484;50.858;4.384;2023-03-01T05:54:02;0.70;99.90
22635;DHT22;11484;50.858;4.384;2023-03-01T05:56:28;0.70;99.90
22635;DHT22;11484;50.858;4.384;2023-03-01T05:58:54;0.70;99.90
22635;DHT22;11484;50.858;4.384;2023-03-01T06:01:20;0.60;99.90
22635;DHT22;11484;50.858;4.384;2023-03-01T06:03:45;0.60;99.90
22635;DHT22;11484;50.858;4.384;2023-03-01T06:06:11;0.70;99.90
22635;DHT22;11484;50.858;4.384;2023-03-01T06:08:37;0.80;99.90
22635;DHT22;11484;50.858;4.384;2023-03-01T06:11:03;0.70;99.90
22635;DHT22;11484;50.858;4.384;2023-03-01T06:13:28;0.80;99.90
22635;DHT22;11484;50.858;4.384;2023-03-01T06:15:55;0.60;99.90
22635;DHT22;11484;50.858;4.384;2023-03-01T06:18:20;0.60;99.90
22635;DHT22;11484;50.858;4.384;2023-03-01T06:20:53;0.70;99.90
22635;DHT22;11484;50.858;4.384;2023-03-01T06:23:19;0.60;99.90
22635;DHT22;11484;50.858;4.384;2023-03-01T06:25:44;0.50;99.90
22635;DHT22;11484;50.858;4.384;2023-03-01T06:28:10;0.40;99.90
22635;DHT22;11484;50.858;4.384;2023-03-01T06:30:36;0.40;99.90
22635;DHT22;11484;50.858;4.384;2023-03-01T06:33:01;0.50;99.90
22635;DHT22;11484;50.858;4.384;2023-03-01T06:35:29;0.50;99.90
22635;DHT22;11484;50.858;4.384;2023-03-01T06:37:55;0.60;99.90
22635;DHT22;11484;50.858;4.384;2023-03-01T06:40:21;0.50;99.90
22635;DHT22;11484;50.858;4.384;2023-03-01T06:42:48;0.50;99.90
22635;DHT22;11484;50.858;4.384;2023-03-01T06:45:14;0.60;99.90
22635;DHT22;11484;50.858;4.384;2023-03-01T06:47:40;0.50;99.90
22635;DHT22;11484;50.858;4.384;2023-03-01T06:50:06;0.50;99.90
22635;DHT22;11484;50.858;4.384;2023-03-01T06:52:32;0.60;99.90
22635;DHT22;11484;50.858;4.384;2023-03-01T06:54:58;0.50;99.90
22635;DHT22;11484;50.858;4.384;2023-03-01T06:57:24;0.60;99.90
22635;DHT22;11484;50.858;4.384;2023-03-01T06:59:49;0.60;99.90
22635;DHT22;11484;50.858;4.384;2023-03-01T07:02:16;0.60;99.90
22635;DHT22;11484;50.858;4.384;2023-03-01T07:04:42;0.60;99.90
22635;DHT22;11484;50.858;4.384;2023-03-01T07:07:08;0.70;99.90
22635;DHT22;11484;50.858;4.384;2023-03-01T07:09:34;0.70;99.90
22635;DHT22;11484;50.858;4.384;2023-03-01T07:11:59;0.70;99.90
22635;DHT22;11484;50.858;4.384;2023-03-01T07:14:25;0.70;99.90
22635;DHT22;11484;50.858;4.384;2023-03-01T07:16:52;0.60;99.90
22635;DHT22;11484;50.858;4.384;2023-03-01T07:19:17;0.70;99.90
22635;DHT22;11484;50.858;4.384;2023-03-01T07:21:43;0.80;99.90
22635;DHT22;11484;50.858;4.384;2023-03-01T07:24:09;0.90;99.90
22635;DHT22;11484;50.858;4.384;2023-03-01T07:26:35;0.90;99.90
22635;DHT22;11484;50.858;4.384;2023-03-01T07:29:03;0.90;99.90
22635;DHT22;11484;50.858;4.384;2023-03-01T07:31:29;0.90;99.90
22635;DHT22;11484;50.858;4.384;2023-03-01T07:33:55;0.90;99.90
22635;DHT22;11484;50.858;4.384;2023-03-01T07:36:21;1.00;99.90
22635;DHT22;11484;50.858;4.384;2023-03-01T07:38:47;1.00;99.90
22635;DHT22;11484;50.858;4.384;2023-03-01T07:41:13;1.30;99.90
22635;DHT22;11484;50.858;4.384;2023-03-01T07:43:38;2.00;99.90
22635;DHT22;11484;50.858;4.384;2023-03-01T07:46:04;2.80;99.90
22635;DHT22;11484;50.858;4.384;2023-03-01T07:48:31;3.60;99.90
22635;DHT22;11484;50.858;4.384;2023-03-01T07:51:01;3.70;99.90
22635;DHT22;11484;50.858;4.384;2023-03-01T07:53:27;3.40;99.90
22635;DHT22;11484;50.858;4.384;2023-03-01T07:56:12;3.00;99.90
22635;DHT22;11484;50.858;4.384;2023-03-01T07:58:39;2.50;99.90
22635;DHT22;11484;50.858;4.384;2023-03-01T08:01:07;2.30;99.90
22635;DHT22;11484;50.858;4.384;2023-03-01T08:03:34;1.90;99.90
22635;DHT22;11484;50.858;4.384;2023-03-01T08:06:02;1.80;99.90
22635;DHT22;11484;50.858;4.384;2023-03-01T08:08:28;1.70;99.90
22635;DHT22;11484;50.858;4.384;2023-03-01T08:10:58;1.70;99.90
22635;DHT22;11484;50.858;4.384;2023-03-01T08:13:24;1.80;99.90
22635;DHT22;11484;50.858;4.384;2023-03-01T08:15:50;1.80;99.90
22635;DHT22;11484;50.858;4.384;2023-03-01T08:18:17;1.80;99.90
22635;DHT22;11484;50.858;4.384;2023-03-01T08:20:44;1.80;99.90
22635;DHT22;11484;50.858;4.384;2023-03-01T08:23:10;1.90;99.90
22635;DHT22;11484;50.858;4.384;2023-03-01T08:25:35;2.00;99.90
22635;DHT22;11484;50.858;4.384;2023-03-01T08:28:01;1.90;99.90
22635;DHT22;11484;50.858;4.384;2023-03-01T08:30:27;1.90;99.90
22635;DHT22;11484;50.858;4.384;2023-03-01T08:32:53;2.00;99.90
22635;DHT22;11484;50.858;4.384;2023-03-01T08:35:19;2.00;99.90
22635;DHT22;11484;50.858;4.384;2023-03-01T08:37:45;1.90;99.90
22635;DHT22;11484;50.858;4.384;2023-03-01T08:40:11;2.00;99.90
22635;DHT22;11484;50.858;4.384;2023-03-01T08:42:39;2.10;99.90
22635;DHT22;11484;50.858;4.384;2023-03-01T08:45:06;2.30;99.90
22635;DHT22;11484;50.858;4.384;2023-03-01T08:47:32;2.60;99.90
22635;DHT22;11484;50.858;4.384;2023-03-01T08:49:59;2.80;99.90
22635;DHT22;11484;50.858;4.384;2023-03-01T08:52:25;3.20;99.90
22635;DHT22;11484;50.858;4.384;2023-03-01T08:54:52;3.60;99.90
22635;DHT22;11484;50.858;4.384;2023-03-01T08:57:18;4.00;99.90
22635;DHT22;11484;50.858;4.384;2023-03-01T08:59:44;4.10;99.90
22635;DHT22;11484;50.858;4.384;2023-03-01T09:02:15;3.90;99.90
22635;DHT22;11484;50.858;4.384;2023-03-01T09:04:41;4.00;99.90
22635;DHT22;11484;50.858;4.384;2023-03-01T09:07:07;4.20;99.90
22635;DHT22;11484;50.858;4.384;2023-03-01T09:09:33;4.40;99.90
22635;DHT22;11484;50.858;4.384;2023-03-01T09:11:59;4.90;99.90
22635;DHT22;11484;50.858;4.384;2023-03-01T09:14:24;5.00;99.90
22635;DHT22;11484;50.858;4.384;2023-03-01T09:16:50;5.00;99.90
22635;DHT22;11484;50.858;4.384;2023-03-01T09:19:16;5.40;99.90
22635;DHT22;11484;50.858;4.384;2023-03-01T09:21:42;5.20;99.90
22635;DHT22;11484;50.858;4.384;2023-03-01T09:24:19;4.90;99.90
22635;DHT22;11484;50.858;4.384;2023-03-01T09:26:45;4.90;99.90
22635;DHT22;11484;50.858;4.384;2023-03-01T09:29:12;4.90;99.90
22635;DHT22;11484;50.858;4.384;2023-03-01T09:31:38;4.90;99.90
22635;DHT22;11484;50.858;4.384;2023-03-01T09:34:05;4.70;99.90
22635;DHT22;11484;50.858;4.384;2023-03-01T09:36:31;4.60;99.90
22635;DHT22;11484;50.858;4.384;2023-03-01T09:39:00;4.80;99.90
22635;DHT22;11484;50.858;4.384;2023-03-01T09:41:42;5.10;99.90
22635;DHT22;11484;50.858;4.384;2023-03-01T09:47:01;5.70;98.10
22635;DHT22;11484;50.858;4.384;2023-03-01T09:49:29;5.80;98.30
22635;DHT22;11484;50.858;4.384;2023-03-01T09:54:45;6.80;96.00
22635;DHT22;11484;50.858;4.384;2023-03-01T10:02:52;6.50;95.20
22635;DHT22;11484;50.858;4.384;2023-03-01T10:05:37;6.60;95.20
22635;DHT22;11484;50.858;4.384;2023-03-01T10:10:40;7.50;93.80
22635;DHT22;11484;50.858;4.384;2023-03-01T10:13:23;7.20;93.20
22635;DHT22;11484;50.858;4.384;2023-03-01T10:15:56;7.30;92.40
22635;DHT22;11484;50.858;4.384;2023-03-01T10:18:28;7.00;92.30
22635;DHT22;11484;50.858;4.384;2023-03-01T10:21:00;6.90;92.60
22635;DHT22;11484;50.858;4.384;2023-03-01T10:23:31;6.50;93.10
22635;DHT22;11484;50.858;4.384;2023-03-01T10:26:04;6.20;93.20
22635;DHT22;11484;50.858;4.384;2023-03-01T10:31:20;5.60;94.00
22635;DHT22;11484;50.858;4.384;2023-03-01T10:33:47;5.40;94.70
22635;DHT22;11484;50.858;4.384;2023-03-01T10:36:17;5.30;95.20
22635;DHT22;11484;50.858;4.384;2023-03-01T10:38:54;5.20;95.10
22635;DHT22;11484;50.858;4.384;2023-03-01T10:41:21;5.30;95.30
22635;DHT22;11484;50.858;4.384;2023-03-01T10:43:53;5.30;95.00
22635;DHT22;11484;50.858;4.384;2023-03-01T10:46:37;5.20;94.90
22635;DHT22;11484;50.858;4.384;2023-03-01T10:49:21;5.10;95.30
22635;DHT22;11484;50.858;4.384;2023-03-01T10:51:49;5.10;95.60
22635;DHT22;11484;50.858;4.384;2023-03-01T10:54:32;5.10;95.30
22635;DHT22;11484;50.858;4.384;2023-03-01T10:57:03;5.10;95.30
22635;DHT22;11484;50.858;4.384;2023-03-01T11:02:26;5.30;95.30
22635;DHT22;11484;50.858;4.384;2023-03-01T11:05:18;5.30;94.90
22635;DHT22;11484;50.858;4.384;2023-03-01T11:10:22;5.40;95.00
22635;DHT22;11484;50.858;4.384;2023-03-01T11:12:48;5.50;95.00
22635;DHT22;11484;50.858;4.384;2023-03-01T11:15:23;5.60;95.10
22635;DHT22;11484;50.858;4.384;2023-03-01T11:17:49;5.60;94.50
22635;DHT22;11484;50.858;4.384;2023-03-01T11:20:19;5.70;94.50
22635;DHT22;11484;50.858;4.384;2023-03-01T11:23:15;5.70;94.40
22635;DHT22;11484;50.858;4.384;2023-03-01T11:25:53;5.80;94.10
22635;DHT22;11484;50.858;4.384;2023-03-01T11:28:20;5.80;93.70
22635;DHT22;11484;50.858;4.384;2023-03-01T11:30:58;5.80;93.70
22635;DHT22;11484;50.858;4.384;2023-03-01T11:33:46;5.70;93.50
22635;DHT22;11484;50.858;4.384;2023-03-01T11:39:05;5.50;93.80
22635;DHT22;11484;50.858;4.384;2023-03-01T11:41:40;5.50;93.40
22635;DHT22;11484;50.858;4.384;2023-03-01T12:09:01;5.80;92.10
22635;DHT22;11484;50.858;4.384;2023-03-01T12:11:38;5.80;92.30
22635;DHT22;11484;50.858;4.384;2023-03-01T12:19:37;6.20;90.80
22635;DHT22;11484;50.858;4.384;2023-03-01T12:22:23;6.10;90.40
22635;DHT22;11484;50.858;4.384;2023-03-01T12:25:18;5.90;90.70
22635;DHT22;11484;50.858;4.384;2023-03-01T12:28:04;6.00;91.10
22635;DHT22;11484;50.858;4.384;2023-03-01T12:30:55;6.00;91.30
22635;DHT22;11484;50.858;4.384;2023-03-01T12:33:39;6.10;91.40
22635;DHT22;11484;50.858;4.384;2023-03-01T12:42:27;6.20;91.00
22635;DHT22;11484;50.858;4.384;2023-03-01T12:45:07;6.30;90.80
22635;DHT22;11484;50.858;4.384;2023-03-01T12:50:23;6.40;91.10
22635;DHT22;11484;50.858;4.384;2023-03-01T12:52:52;6.40;90.50
22635;DHT22;11484;50.858;4.384;2023-03-01T12:55:30;6.50;90.70
22635;DHT22;11484;50.858;4.384;2023-03-01T12:58:29;6.60;90.30
22635;DHT22;11484;50.858;4.384;2023-03-01T13:06:21;6.80;89.40
22635;DHT22;11484;50.858;4.384;2023-03-01T13:08:58;6.60;89.70
22635;DHT22;11484;50.858;4.384;2023-03-01T13:11:28;6.60;90.30
22635;DHT22;11484;50.858;4.384;2023-03-01T13:16:54;6.80;89.00
22635;DHT22;11484;50.858;4.384;2023-03-01T13:19:27;6.80;89.00
22635;DHT22;11484;50.858;4.384;2023-03-01T13:22:25;6.80;87.30
22635;DHT22;11484;50.858;4.384;2023-03-01T13:25:12;6.80;87.10
22635;DHT22;11484;50.858;4.384;2023-03-01T13:27:39;6.80;87.30
22635;DHT22;11484;50.858;4.384;2023-03-01T13:30:38;6.80;87.00
22635;DHT22;11484;50.858;4.384;2023-03-01T13:35:52;6.70;86.20
22635;DHT22;11484;50.858;4.384;2023-03-01T13:41:02;6.70;86.50
22635;DHT22;11484;50.858;4.384;2023-03-01T13:43:37;6.70;86.80
22635;DHT22;11484;50.858;4.384;2023-03-01T13:46:20;6.70;86.90
22635;DHT22;11484;50.858;4.384;2023-03-01T13:48:51;6.60;86.90
22635;DHT22;11484;50.858;4.384;2023-03-01T13:51:26;6.70;87.10
22635;DHT22;11484;50.858;4.384;2023-03-01T13:53:53;6.80;86.70
22635;DHT22;11484;50.858;4.384;2023-03-01T13:56:24;6.80;85.70
22635;DHT22;11484;50.858;4.384;2023-03-01T13:59:16;6.80;85.90
22635;DHT22;11484;50.858;4.384;2023-03-01T14:01:42;6.80;87.00
22635;DHT22;11484;50.858;4.384;2023-03-01T14:04:25;6.80;87.60
22635;DHT22;11484;50.858;4.384;2023-03-01T14:06:57;6.80;86.80
22635;DHT22;11484;50.858;4.384;2023-03-01T14:09:37;6.80;83.90
22635;DHT22;11484;50.858;4.384;2023-03-01T14:15:34;6.80;84.70
22635;DHT22;11484;50.858;4.384;2023-03-01T14:18:17;6.90;85.00
22635;DHT22;11484;50.858;4.384;2023-03-01T14:20:45;6.90;84.10
22635;DHT22;11484;50.858;4.384;2023-03-01T14:23:19;6.80;83.80
22635;DHT22;11484;50.858;4.384;2023-03-01T14:25:54;6.80;84.90
22635;DHT22;11484;50.858;4.384;2023-03-01T14:28:28;6.80;85.10
22635;DHT22;11484;50.858;4.384;2023-03-01T14:30:58;6.90;84.60
22635;DHT22;11484;50.858;4.384;2023-03-01T14:36:06;6.90;85.60
22635;DHT22;11484;50.858;4.384;2023-03-01T14:38:44;6.90;85.60
22635;DHT22;11484;50.858;4.384;2023-03-01T14:41:28;7.00;85.40
22635;DHT22;11484;50.858;4.384;2023-03-01T14:43:59;7.10;85.30
22635;DHT22;11484;50.858;4.384;2023-03-01T14:46:37;7.10;84.60
22635;DHT22;11484;50.858;4.384;2023-03-01T14:49:16;7.10;85.10
22635;DHT22;11484;50.858;4.384;2023-03-01T14:51:50;7.10;85.40
22635;DHT22;11484;50.858;4.384;2023-03-01T14:54:42;7.10;85.60
22635;DHT22;11484;50.858;4.384;2023-03-01T14:57:34;7.30;85.30
22635;DHT22;11484;50.858;4.384;2023-03-01T15:00:03;7.20;84.00
22635;DHT22;11484;50.858;4.384;2023-03-01T15:02:33;7.20;84.40
22635;DHT22;11484;50.858;4.384;2023-03-01T15:05:01;7.20;84.30
22635;DHT22;11484;50.858;4.384;2023-03-01T15:07:36;7.20;84.20
22635;DHT22;11484;50.858;4.384;2023-03-01T15:10:04;7.20;84.30
22635;DHT22;11484;50.858;4.384;2023-03-01T15:14:58;7.30;83.60
22635;DHT22;11484;50.858;4.384;2023-03-01T15:17:33;7.30;82.30
22635;DHT22;11484;50.858;4.384;2023-03-01T15:20:05;7.20;82.90
22635;DHT22;11484;50.858;4.384;2023-03-01T15:22:32;7.20;84.00
22635;DHT22;11484;50.858;4.384;2023-03-01T15:24:58;7.20;84.10
22635;DHT22;11484;50.858;4.384;2023-03-01T15:27:25;7.20;84.00
22635;DHT22;11484;50.858;4.384;2023-03-01T15:29:58;7.20;84.40
22635;DHT22;11484;50.858;4.384;2023-03-01T15:32:33;7.30;84.40
22635;DHT22;11484;50.858;4.384;2023-03-01T15:35:01;7.30;84.40
22635;DHT22;11484;50.858;4.384;2023-03-01T15:37:48;7.30;84.40
22635;DHT22;11484;50.858;4.384;2023-03-01T15:40:25;7.30;85.00
22635;DHT22;11484;50.858;4.384;2023-03-01T15:43:00;7.30;84.90
22635;DHT22;11484;50.858;4.384;2023-03-01T15:45:28;7.30;85.00
22635;DHT22;11484;50.858;4.384;2023-03-01T15:47:57;7.20;85.30
22635;DHT22;11484;50.858;4.384;2023-03-01T15:50:25;7.10;85.70
22635;DHT22;11484;50.858;4.384;2023-03-01T15:52:51;7.10;85.20
22635;DHT22;11484;50.858;4.384;2023-03-01T15:55:20;7.10;85.00
22635;DHT22;11484;50.858;4.384;2023-03-01T15:57:47;7.10;84.70
22635;DHT22;11484;50.858;4.384;2023-03-01T16:00:14;7.10;84.70
22635;DHT22;11484;50.858;4.384;2023-03-01T16:02:41;7.10;84.60
22635;DHT22;11484;50.858;4.384;2023-03-01T16:07:49;7.20;83.90
22635;DHT22;11484;50.858;4.384;2023-03-01T16:10:15;7.20;84.20
22635;DHT22;11484;50.858;4.384;2023-03-01T16:12:41;7.10;84.10
22635;DHT22;11484;50.858;4.384;2023-03-01T16:15:21;7.10;84.40
22635;DHT22;11484;50.858;4.384;2023-03-01T16:17:48;7.10;84.40
22635;DHT22;11484;50.858;4.384;2023-03-01T16:20:14;7.10;85.70
22635;DHT22;11484;50.858;4.384;2023-03-01T16:22:42;7.20;84.60
22635;DHT22;11484;50.858;4.384;2023-03-01T16:25:13;7.20;84.90
22635;DHT22;11484;50.858;4.384;2023-03-01T16:27:42;7.10;85.40
22635;DHT22;11484;50.858;4.384;2023-03-01T16:30:08;7.10;85.90
22635;DHT22;11484;50.858;4.384;2023-03-01T16:32:38;7.00;86.30
22635;DHT22;11484;50.858;4.384;2023-03-01T16:35:05;7.10;86.50
22635;DHT22;11484;50.858;4.384;2023-03-01T16:37:33;7.10;86.30
22635;DHT22;11484;50.858;4.384;2023-03-01T16:39:59;7.10;86.50
22635;DHT22;11484;50.858;4.384;2023-03-01T16:42:25;7.10;86.30
22635;DHT22;11484;50.858;4.384;2023-03-01T16:44:57;7.10;86.40
22635;DHT22;11484;50.858;4.384;2023-03-01T16:47:23;7.20;86.80
22635;DHT22;11484;50.858;4.384;2023-03-01T16:49:52;7.20;86.50
22635;DHT22;11484;50.858;4.384;2023-03-01T16:52:18;7.10;86.70
22635;DHT22;11484;50.858;4.384;2023-03-01T16:54:44;7.10;86.80
22635;DHT22;11484;50.858;4.384;2023-03-01T16:57:10;7.10;87.00
22635;DHT22;11484;50.858;4.384;2023-03-01T16:59:35;7.10;87.30
22635;DHT22;11484;50.858;4.384;2023-03-01T17:02:03;7.00;87.20
22635;DHT22;11484;50.858;4.384;2023-03-01T17:04:29;7.00;87.60
22635;DHT22;11484;50.858;4.384;2023-03-01T17:06:56;7.00;87.80
22635;DHT22;11484;50.858;4.384;2023-03-01T17:09:21;7.00;87.90
22635;DHT22;11484;50.858;4.384;2023-03-01T17:11:48;6.90;88.00
22635;DHT22;11484;50.858;4.384;2023-03-01T17:14:15;6.80;88.60
22635;DHT22;11484;50.858;4.384;2023-03-01T17:16:41;6.90;89.00
22635;DHT22;11484;50.858;4.384;2023-03-01T17:19:07;6.80;89.00
22635;DHT22;11484;50.858;4.384;2023-03-01T17:21:33;6.70;89.10
22635;DHT22;11484;50.858;4.384;2023-03-01T17:23:59;6.80;88.90
22635;DHT22;11484;50.858;4.384;2023-03-01T17:26:25;6.80;88.70
22635;DHT22;11484;50.858;4.384;2023-03-01T17:28:54;6.70;88.90
22635;DHT22;11484;50.858;4.384;2023-03-01T17:31:20;6.60;89.00
22635;DHT22;11484;50.858;4.384;2023-03-01T17:33:45;6.60;89.10
22635;DHT22;11484;50.858;4.384;2023-03-01T17:36:11;6.40;89.10
22635;DHT22;11484;50.858;4.384;2023-03-01T17:38:37;6.40;89.50
22635;DHT22;11484;50.858;4.384;2023-03-01T17:41:03;6.40;89.60
22635;DHT22;11484;50.858;4.384;2023-03-01T17:43:29;6.40;89.80
22635;DHT22;11484;50.858;4.384;2023-03-01T17:45:56;6.40;90.00